KCLE

Cleveland International

Airport
ICAO code
KCLE
Summary
ICAO Region
NAM
ICAO Territory
Location

Cleveland, Ohio,

Coordinates
41° 24' 37" N , 81° 51' 10" W
KCC
Airport WX
Lake Effect Snow
Metar
Observation
KCLE 280951Z 25006KT 10SM SCT025 BKN032 OVC041 12/09 A3016 RMK AO2 RAB22E36 SLP227 P0000 T01170094
Station
Cleveland, Cleveland-Hopkins International Airport
Date/Time
2022-09-28 09:51:00
Wind direction
250°
Wind speed
06 kts
Lowest cloud amount
scattered clouds
Temperature
11.7°C
Dew point
9.4°C
Humidity
85%
Weather condition
n/a

Description

Cleveland Hopkins International Airport is a public airport located 14 km southwest of the central business district of Cleveland, a city in Cuyahoga County, Ohio, United States.

Climatology

Humid continental climate (Köppen climate classification Dfa) - characterized by four seasons: cold, windy, snowy winters, mild springs, hot, humid summers, and crisp and relatively short autumns. Precipitation reaches its lowest in January and February and peaks in summer and latter half of spring.

Airport map

Aerial View

SKYbrary Partners:

Safety knowledge contributed by: